createdAt,value
2018-08-22T00:00:03.892Z,24.71
2018-08-22T00:01:14.000Z,24.7
2018-08-22T00:02:24.096Z,24.77
2018-08-22T00:03:33.918Z,24.66
2018-08-22T00:04:43.734Z,24.78
2018-08-22T00:05:53.796Z,24.74
2018-08-22T00:07:03.877Z,24.69
2018-08-22T00:08:13.942Z,24.7
2018-08-22T00:09:24.039Z,24.71
2018-08-22T00:10:34.116Z,24.71
2018-08-22T00:11:44.199Z,24.61
2018-08-22T00:12:54.281Z,24.64
2018-08-22T00:14:04.358Z,24.63
2018-08-22T00:15:14.710Z,24.71
2018-08-22T00:16:25.347Z,24.56
2018-08-22T00:17:35.421Z,24.59
2018-08-22T00:18:45.252Z,24.58
2018-08-22T00:19:55.325Z,24.52
2018-08-22T00:21:05.142Z,24.49
2018-08-22T00:22:15.282Z,24.46
2018-08-22T00:23:25.373Z,24.45
2018-08-22T00:24:35.461Z,24.45
2018-08-22T00:25:45.290Z,24.45
2018-08-22T00:26:55.444Z,24.4
2018-08-22T00:28:06.193Z,24.44
2018-08-22T00:29:16.564Z,24.33
2018-08-22T00:30:27.087Z,24.4
2018-08-22T00:31:37.174Z,24.3
2018-08-22T00:32:47.010Z,24.36
2018-08-22T00:33:57.152Z,24.33
2018-08-22T00:35:06.979Z,24.27
2018-08-22T00:36:17.051Z,24.3
2018-08-22T00:37:27.144Z,24.3
2018-08-22T00:38:37.212Z,24.3
2018-08-22T00:39:47.275Z,24.27
2018-08-22T00:40:57.086Z,24.19
2018-08-22T00:42:07.148Z,24.29
2018-08-22T00:43:17.222Z,24.17
2018-08-22T00:44:27.299Z,24.17
2018-08-22T00:45:37.113Z,24.15
2018-08-22T00:46:47.176Z,24.17
2018-08-22T00:47:57.250Z,24.17
2018-08-22T00:49:07.059Z,24.12
2018-08-22T00:50:16.888Z,24.07
2018-08-22T00:51:26.960Z,23.99
2018-08-22T00:52:37.043Z,24
2018-08-22T00:53:46.854Z,23.97
2018-08-22T00:54:56.933Z,24
2018-08-22T00:56:07.073Z,23.89
2018-08-22T00:57:16.901Z,24
2018-08-22T00:58:26.974Z,23.93
2018-08-22T00:59:37.069Z,23.92
2018-08-22T01:00:46.628Z,23.94
2018-08-22T01:01:56.437Z,23.94
2018-08-22T01:03:05.729Z,23.87
2018-08-22T01:04:15.787Z,23.85
2018-08-22T01:05:25.632Z,23.9
2018-08-22T01:06:35.445Z,23.85
2018-08-22T01:07:45.520Z,23.82
2018-08-22T01:08:55.605Z,23.78
2018-08-22T01:10:05.422Z,23.78
2018-08-22T01:11:15.496Z,23.78
2018-08-22T01:12:25.308Z,23.78
2018-08-22T01:13:35.395Z,23.74
2018-08-22T01:14:45.483Z,23.71
2018-08-22T01:15:55.307Z,23.81
2018-08-22T01:17:05.389Z,23.75
2018-08-22T01:18:15.224Z,23.79
2018-08-22T01:19:25.032Z,23.82
2018-08-22T01:20:34.943Z,23.79
2018-08-22T01:21:44.493Z,23.81
2018-08-22T01:22:54.561Z,23.82
2018-08-22T01:24:04.651Z,23.84
2018-08-22T01:25:14.464Z,23.79
2018-08-22T01:26:24.536Z,23.79
2018-08-22T01:27:34.628Z,23.78
2018-08-22T01:28:44.479Z,23.85
2018-08-22T01:29:54.044Z,23.82
2018-08-22T01:31:04.109Z,23.78
2018-08-22T01:32:14.204Z,23.78
2018-08-22T01:33:24.037Z,23.82
2018-08-22T01:34:34.122Z,23.72
2018-08-22T01:35:43.666Z,23.77
2018-08-22T01:36:53.747Z,23.78
2018-08-22T01:38:03.875Z,23.78
2018-08-22T01:39:13.688Z,23.75
2018-08-22T01:40:23.787Z,23.77
2018-08-22T01:41:33.895Z,23.67
2018-08-22T01:42:43.452Z,23.64
2018-08-22T01:43:53.004Z,23.7
2018-08-22T01:45:02.836Z,23.67
2018-08-22T01:46:12.928Z,23.64
2018-08-22T01:47:22.764Z,23.64
2018-08-22T01:48:32.856Z,23.6
2018-08-22T01:49:43.006Z,23.52
2018-08-22T01:50:53.093Z,23.47
2018-08-22T01:52:02.651Z,23.56
2018-08-22T01:53:12.482Z,23.6
2018-08-22T01:54:22.558Z,23.53
2018-08-22T01:55:32.650Z,23.6
2018-08-22T01:56:42.720Z,23.6
2018-08-22T01:57:52.804Z,23.56
2018-08-22T01:59:02.925Z,23.5
2018-08-22T02:00:12.760Z,23.47
2018-08-22T02:01:22.881Z,23.55
2018-08-22T02:02:32.970Z,23.5
2018-08-22T02:03:43.044Z,23.55
2018-08-22T02:04:53.136Z,23.57
2018-08-22T02:06:03.197Z,23.55
2018-08-22T02:07:13.053Z,23.53
2018-08-22T02:08:23.136Z,23.53
2018-08-22T02:09:33.214Z,23.55
2018-08-22T02:10:43.296Z,23.56
2018-08-22T02:11:53.381Z,23.63
2018-08-22T02:13:03.201Z,23.57
2018-08-22T02:14:13.270Z,23.57
2018-08-22T02:15:23.360Z,23.64
2018-08-22T02:16:33.673Z,23.57
2018-08-22T02:17:43.759Z,23.57
2018-08-22T02:18:53.840Z,23.66
2018-08-22T02:20:03.938Z,23.56
2018-08-22T02:21:14.005Z,23.52
2018-08-22T02:22:24.087Z,23.62
2018-08-22T02:23:34.188Z,23.59
2018-08-22T02:24:44.043Z,23.6
2018-08-22T02:25:54.125Z,23.55
2018-08-22T02:27:04.208Z,23.59
2018-08-22T02:28:14.034Z,23.63
2018-08-22T02:29:23.861Z,23.57
2018-08-22T02:30:33.925Z,23.57
2018-08-22T02:31:44.041Z,23.48
2018-08-22T02:32:54.129Z,23.52
2018-08-22T02:34:04.220Z,23.5
2018-08-22T02:35:14.290Z,23.56
2018-08-22T02:36:24.426Z,23.53
2018-08-22T02:37:34.493Z,23.57
2018-08-22T02:38:44.582Z,23.55
2018-08-22T02:39:54.664Z,23.59
2018-08-22T02:41:04.756Z,23.45
2018-08-22T02:42:14.868Z,23.52
2018-08-22T02:43:24.970Z,23.45
2018-08-22T02:44:35.076Z,23.47
2018-08-22T02:45:45.155Z,23.42
2018-08-22T02:46:55.233Z,23.4
2018-08-22T02:48:05.409Z,23.35
2018-08-22T02:49:15.476Z,23.38
2018-08-22T02:50:25.306Z,23.35
2018-08-22T02:51:35.116Z,23.29
2018-08-22T02:52:45.226Z,23.37
2018-08-22T02:53:55.055Z,23.32
2018-08-22T02:55:05.108Z,23.34
2018-08-22T02:56:15.180Z,23.34
2018-08-22T02:57:25.272Z,23.26
2018-08-22T02:58:35.368Z,23.26
2018-08-22T02:59:45.518Z,23.28
2018-08-22T03:00:55.326Z,23.24
2018-08-22T03:02:05.142Z,23.26
2018-08-22T03:03:15.222Z,23.22
2018-08-22T03:35:31.907Z,21.22
2018-08-22T03:36:41.966Z,21.09
2018-08-22T03:37:52.030Z,21.15
2018-08-22T03:39:02.119Z,21.06
2018-08-22T03:40:11.919Z,21.06
2018-08-22T03:41:22.009Z,21.12
2018-08-22T03:42:31.823Z,21.11
2018-08-22T03:43:41.910Z,21.18
2018-08-22T03:44:51.993Z,21.23
2018-08-22T03:46:02.073Z,21.3
2018-08-22T03:47:12.206Z,21.43
2018-08-22T03:48:22.278Z,21.52
2018-08-22T03:49:32.353Z,21.61
2018-08-22T03:50:42.170Z,21.66
2018-08-22T03:51:52.239Z,21.71
2018-08-22T03:53:02.123Z,21.74
2018-08-22T03:54:11.942Z,21.85
2018-08-22T03:55:21.759Z,21.92
2018-08-22T03:56:31.845Z,22.04
2018-08-22T03:57:41.917Z,22.09
2018-08-22T03:58:51.738Z,22.14
2018-08-22T04:00:01.571Z,22.18
2018-08-22T04:01:11.657Z,22.23
2018-08-22T04:02:21.720Z,22.34
2018-08-22T04:03:31.529Z,22.27
2018-08-22T04:04:41.611Z,22.36
2018-08-22T04:05:51.697Z,22.45
2018-08-22T04:07:01.497Z,22.42
2018-08-22T04:08:11.324Z,22.54
2018-08-22T04:09:21.137Z,22.51
2018-08-22T04:10:31.264Z,22.6
2018-08-22T04:11:41.093Z,22.64
2018-08-22T04:12:51.158Z,22.7
2018-08-22T04:14:01.224Z,22.67
2018-08-22T04:15:11.057Z,22.71
2018-08-22T04:16:21.141Z,22.75
2018-08-22T04:17:31.227Z,22.75
2018-08-22T04:18:41.316Z,22.76
2018-08-22T04:19:51.459Z,22.89
2018-08-22T04:21:01.289Z,22.86
2018-08-22T04:22:10.853Z,22.86
2018-08-22T04:23:20.679Z,22.89
2018-08-22T04:24:30.766Z,23.06
2018-08-22T04:25:40.333Z,23.18
2018-08-22T04:26:50.424Z,23.19
2018-08-22T04:28:00.777Z,23.26
2018-08-22T04:29:10.847Z,23.24
2018-08-22T04:30:20.920Z,23.26
2018-08-22T04:31:31.012Z,23.21
2018-08-22T04:32:41.108Z,23.25
2018-08-22T04:33:51.198Z,23.32
2018-08-22T04:35:01.053Z,23.34
2018-08-22T04:36:11.138Z,23.35
2018-08-22T04:37:21.093Z,23.4
2018-08-22T04:38:31.020Z,23.67
2018-08-22T04:39:41.164Z,24.15
2018-08-22T04:40:51.260Z,24.59
2018-08-22T04:42:01.342Z,25.04
2018-08-22T04:43:11.176Z,25.34
2018-08-22T04:44:21.281Z,25.64
2018-08-22T04:45:31.098Z,25.93
2018-08-22T04:46:41.182Z,26.17
2018-08-22T04:47:51.280Z,26.44
2018-08-22T04:49:01.369Z,26.71
2018-08-22T04:50:11.451Z,26.87
2018-08-22T04:51:21.584Z,26.99
2018-08-22T04:52:31.430Z,27.21
2018-08-22T04:53:41.237Z,27.43
2018-08-22T04:54:51.073Z,27.62
2018-08-22T04:56:01.164Z,27.9
2018-08-22T04:57:11.332Z,28.09
2018-08-22T04:58:21.434Z,28.3
2018-08-22T04:59:31.246Z,28.42
2018-08-22T05:00:41.387Z,28.65
2018-08-22T05:01:51.480Z,28.76
2018-08-22T05:03:01.544Z,28.91
2018-08-22T05:04:11.620Z,29.02
2018-08-22T05:05:21.711Z,29.17
2018-08-22T05:06:31.796Z,29.15
2018-08-22T05:07:41.887Z,29.4
2018-08-22T05:08:52.033Z,29.47
2018-08-22T05:10:02.137Z,29.47
2018-08-22T05:11:12.215Z,29.72
2018-08-22T05:12:22.036Z,29.76
2018-08-22T05:13:32.111Z,29.85
2018-08-22T05:14:42.241Z,29.92
2018-08-22T05:15:52.325Z,29.98
2018-08-22T05:17:02.421Z,30.06
2018-08-22T05:18:12.513Z,30.09
2018-08-22T05:19:22.606Z,30.11
2018-08-22T05:20:32.746Z,30.22
2018-08-22T05:21:42.844Z,30.28
2018-08-22T05:22:52.941Z,30.47
2018-08-22T05:24:02.780Z,30.51
2018-08-22T05:25:12.864Z,30.6
2018-08-22T05:26:23.047Z,30.62
2018-08-22T05:27:33.133Z,30.57
2018-08-22T05:28:43.228Z,30.71
2018-08-22T05:29:53.316Z,30.69
2018-08-22T05:31:03.266Z,30.71
2018-08-22T05:32:13.415Z,30.75
2018-08-22T05:33:23.507Z,30.84
2018-08-22T05:34:33.612Z,30.85
2018-08-22T05:35:43.701Z,30.85
2018-08-22T05:36:53.786Z,30.96
2018-08-22T05:38:03.967Z,30.94
2018-08-22T05:39:14.046Z,30.97
2018-08-22T05:40:24.129Z,30.91
2018-08-22T05:41:34.235Z,30.99
2018-08-22T05:42:44.060Z,31.03
2018-08-22T05:43:54.158Z,30.97
2018-08-22T05:45:04.238Z,30.91
2018-08-22T05:46:14.325Z,30.52
2018-08-22T05:47:24.139Z,30.02
2018-08-22T05:48:33.951Z,29.66
2018-08-22T05:49:44.094Z,29.33
2018-08-22T05:50:54.166Z,29.36
2018-08-22T05:52:03.981Z,29.48
2018-08-22T05:53:14.058Z,29.45
2018-08-22T05:54:24.144Z,29.18
2018-08-22T05:55:33.811Z,28.92
2018-08-22T05:56:43.892Z,28.91
2018-08-22T05:57:54.039Z,28.7
2018-08-22T05:59:03.874Z,28.65
2018-08-22T06:00:13.707Z,28.78
2018-08-22T06:01:23.777Z,28.86
2018-08-22T06:02:33.882Z,28.65
2018-08-22T06:03:43.718Z,28.57
2018-08-22T06:04:53.789Z,28.45
2018-08-22T06:06:03.377Z,28.36
2018-08-22T06:07:13.461Z,28.53
2018-08-22T06:08:23.551Z,28.68
2018-08-22T06:09:33.654Z,28.85
2018-08-22T06:10:43.776Z,28.73
2018-08-22T06:11:54.049Z,28.6
2018-08-22T06:13:03.880Z,28.49
2018-08-22T06:14:13.971Z,28.33
2018-08-22T06:15:24.055Z,28.2
2018-08-22T06:16:33.871Z,28.14
2018-08-22T06:17:43.967Z,28.11
2018-08-22T06:18:54.098Z,28.16
2018-08-22T06:20:04.184Z,28.09
2018-08-22T06:21:14.260Z,28.11
2018-08-22T06:22:24.345Z,28.02
2018-08-22T06:23:34.431Z,28.06
2018-08-22T06:24:44.238Z,28.06
2018-08-22T06:25:54.315Z,28.16
2018-08-22T06:27:04.131Z,28.14
2018-08-22T06:28:14.219Z,28.08
2018-08-22T06:29:24.032Z,28.12
2018-08-22T06:30:34.150Z,28.11
2018-08-22T06:31:44.238Z,28.18
2018-08-22T06:32:54.156Z,28.11
2018-08-22T06:34:04.029Z,28.26
2018-08-22T06:35:13.579Z,28.2
2018-08-22T06:36:24.033Z,28.18
2018-08-22T06:37:34.335Z,28.17
2018-08-22T06:38:44.634Z,28.17
2018-08-22T06:39:54.723Z,28.11
2018-08-22T06:41:04.555Z,28.2
2018-08-22T06:42:14.394Z,28.18
2018-08-22T06:43:24.485Z,28.21
2018-08-22T06:44:34.576Z,28.35
2018-08-22T06:45:44.650Z,28.26
2018-08-22T06:46:54.726Z,28.23
2018-08-22T06:48:04.583Z,28.3
2018-08-22T06:49:14.671Z,28.41
2018-08-22T06:50:24.679Z,28.38
2018-08-22T06:51:34.781Z,28.36
2018-08-22T06:52:44.587Z,28.42
2018-08-22T06:53:54.686Z,28.42
2018-08-22T06:55:04.763Z,28.48
2018-08-22T06:56:14.850Z,28.39
2018-08-22T06:57:24.689Z,28.39
2018-08-22T06:58:34.771Z,28.48
2018-08-22T06:59:44.914Z,28.45
2018-08-22T07:00:54.771Z,28.54
2018-08-22T07:02:04.599Z,28.58
2018-08-22T07:03:14.692Z,28.61
2018-08-22T07:04:24.790Z,28.63
2018-08-22T07:05:34.885Z,28.67
2018-08-22T07:06:44.715Z,28.78
2018-08-22T07:07:54.585Z,28.85
2018-08-22T07:09:04.822Z,28.91
2018-08-22T07:10:14.639Z,28.97
2018-08-22T07:11:24.736Z,28.98
2018-08-22T07:12:34.872Z,29.01
2018-08-22T07:13:44.700Z,29.08
2018-08-22T07:14:54.819Z,29.11
2018-08-22T07:16:04.906Z,29.24
2018-08-22T07:17:14.997Z,29.28
2018-08-22T07:18:25.077Z,29.33
2018-08-22T07:19:34.915Z,29.26
2018-08-22T07:20:44.739Z,29.3
2018-08-22T07:21:54.964Z,29.4
2018-08-22T07:23:05.214Z,29.42
2018-08-22T07:24:15.286Z,29.45
2018-08-22T07:25:25.132Z,29.48
2018-08-22T07:26:34.948Z,29.45
2018-08-22T07:27:45.040Z,29.51
2018-08-22T07:28:55.124Z,29.52
2018-08-22T07:30:05.059Z,29.57
2018-08-22T07:31:15.030Z,29.66
2018-08-22T07:32:24.862Z,29.69
2018-08-22T07:33:34.965Z,29.73
2018-08-22T07:34:45.056Z,29.77
2018-08-22T07:35:55.115Z,29.81
2018-08-22T07:37:05.125Z,29.88
2018-08-22T07:38:14.944Z,29.88
2018-08-22T07:39:25.046Z,29.88
2018-08-22T07:40:35.126Z,30.02
2018-08-22T07:41:45.056Z,30.07
2018-08-22T07:42:54.868Z,30.09
2018-08-22T07:44:04.952Z,30.07
2018-08-22T07:45:14.504Z,30.16
2018-08-22T07:46:24.329Z,30.14
2018-08-22T07:47:34.469Z,30.18
2018-08-22T07:48:44.563Z,30.19
2018-08-22T07:49:54.641Z,30.22
2018-08-22T07:51:04.482Z,30.28
2018-08-22T07:52:14.597Z,30.39
2018-08-22T07:53:24.638Z,30.4
2018-08-22T07:54:35.048Z,30.47
2018-08-22T07:55:44.860Z,30.57
2018-08-22T07:56:55.016Z,30.49
2018-08-22T07:58:04.863Z,30.47
2018-08-22T07:59:14.729Z,30.51
2018-08-22T08:00:24.807Z,30.47
2018-08-22T08:01:34.906Z,30.47
2018-08-22T08:02:44.797Z,30.49
2018-08-22T08:03:54.878Z,30.56
2018-08-22T08:05:05.209Z,30.52
2018-08-22T08:06:15.298Z,30.52
2018-08-22T08:07:25.389Z,30.7
2018-08-22T08:08:35.679Z,30.66
2018-08-22T08:09:45.967Z,30.73
2018-08-22T08:10:56.248Z,30.79
2018-08-22T08:12:06.297Z,30.79
2018-08-22T08:13:16.137Z,30.77
2018-08-22T08:14:26.256Z,30.84
2018-08-22T08:15:36.340Z,30.77
2018-08-22T08:16:46.492Z,30.54
2018-08-22T08:17:56.073Z,30.52
2018-08-22T08:19:06.195Z,30.69
2018-08-22T08:20:16.293Z,30.69
2018-08-22T08:21:26.431Z,30.86
2018-08-22T08:22:36.593Z,31
2018-08-22T08:23:46.662Z,31.1
2018-08-22T08:24:56.761Z,31.08
2018-08-22T08:26:06.808Z,31.19
2018-08-22T08:27:17.221Z,31.21
2018-08-22T08:28:27.051Z,31.33
2018-08-22T08:29:37.150Z,31.28
2018-08-22T08:30:47.360Z,31.31
2018-08-22T08:31:56.936Z,31.41
2018-08-22T08:33:06.756Z,31.41
2018-08-22T08:34:16.592Z,31.53
2018-08-22T08:35:26.677Z,31.47
2018-08-22T08:36:36.772Z,31.44
2018-08-22T08:37:46.895Z,31.5
2018-08-22T08:38:57.059Z,31.55
2018-08-22T08:40:07.198Z,31.63
2018-08-22T08:41:17.105Z,31.71
2018-08-22T08:42:27.244Z,31.75
2018-08-22T08:43:37.106Z,31.77
2018-08-22T08:44:47.196Z,31.9
2018-08-22T08:45:57.352Z,31.94
2018-08-22T08:47:07.492Z,32.05
2018-08-22T08:48:17.600Z,32.09
2018-08-22T08:49:27.975Z,32.16
2018-08-22T08:50:38.429Z,32.19
2018-08-22T08:51:48.325Z,32.23
2018-08-22T08:52:58.136Z,32.3
2018-08-22T08:54:07.983Z,32.35
2018-08-22T08:55:17.799Z,32.38
2018-08-22T08:56:27.634Z,32.37
2018-08-22T08:57:37.510Z,32.47
2018-08-22T08:58:47.629Z,32.5
2018-08-22T08:59:57.808Z,32.56
2018-08-22T09:01:07.730Z,32.71
2018-08-22T09:02:17.865Z,32.75
2018-08-22T09:03:28.042Z,32.74
2018-08-22T09:04:38.202Z,32.76
2018-08-22T09:05:48.024Z,32.8
2018-08-22T09:06:57.943Z,32.81
2018-08-22T09:08:08.093Z,32.83
2018-08-22T09:09:17.716Z,32.81
2018-08-22T09:10:27.800Z,32.87
2018-08-22T09:11:37.907Z,32.84
2018-08-22T09:12:48.000Z,32.87
2018-08-22T09:13:57.838Z,32.93
2018-08-22T09:15:08.033Z,32.96
2018-08-22T09:16:17.851Z,33.01
2018-08-22T09:17:28.256Z,33.06
2018-08-22T09:18:38.359Z,33.02
2018-08-22T09:19:48.513Z,33.06
2018-08-22T09:20:58.651Z,33.11
2018-08-22T09:22:08.661Z,33.17
2018-08-22T09:23:18.792Z,33.17
2018-08-22T09:24:28.986Z,33.23
2018-08-22T09:25:39.126Z,33.17
2018-08-22T09:26:49.228Z,33.18
2018-08-22T09:27:59.408Z,33.21
2018-08-22T09:29:09.294Z,33.31
2018-08-22T09:30:19.378Z,33.29
2018-08-22T09:31:29.550Z,33.37
2018-08-22T09:32:39.379Z,33.44
2018-08-22T09:33:49.753Z,33.52
2018-08-22T09:34:59.853Z,33.5
2018-08-22T09:36:09.936Z,33.62
2018-08-22T09:37:20.025Z,33.59
2018-08-22T09:38:29.890Z,33.65
2018-08-22T09:39:40.031Z,33.58
2018-08-22T09:40:50.302Z,33.62
2018-08-22T09:42:00.859Z,33.61
2018-08-22T09:43:10.998Z,33.63
2018-08-22T09:44:21.365Z,33.73
2018-08-22T09:45:31.223Z,33.62
2018-08-22T09:46:41.484Z,33.74
2018-08-22T09:47:51.952Z,33.71
2018-08-22T09:49:01.764Z,33.84
2018-08-22T09:50:11.917Z,33.87
2018-08-22T09:51:21.923Z,33.92
2018-08-22T09:52:32.073Z,34.05
2018-08-22T09:53:41.952Z,34.03
2018-08-22T09:54:51.769Z,34.05
2018-08-22T09:56:01.840Z,34.08
2018-08-22T09:57:11.660Z,34.06
2018-08-22T09:58:22.010Z,33.99
2018-08-22T09:59:32.206Z,34.1
2018-08-22T10:00:42.463Z,34.1
2018-08-22T10:01:52.819Z,34.12
2018-08-22T10:03:02.926Z,34.05
2018-08-22T10:04:13.107Z,34.26
2018-08-22T10:05:22.688Z,34.27
2018-08-22T10:06:33.211Z,34.22
2018-08-22T10:07:43.865Z,34.37
2018-08-22T10:08:53.680Z,34.34
2018-08-22T10:10:04.249Z,34.41
2018-08-22T10:11:14.539Z,34.46
2018-08-22T10:12:24.609Z,34.54
2018-08-22T10:13:34.442Z,34.56
2018-08-22T10:14:44.626Z,34.59
2018-08-22T10:15:54.750Z,34.54
2018-08-22T10:17:04.307Z,34.59
2018-08-22T10:18:14.419Z,34.58
2018-08-22T10:19:24.237Z,34.58
2018-08-22T10:20:34.375Z,34.66
2018-08-22T10:21:44.453Z,34.78
2018-08-22T10:22:53.750Z,34.83
2018-08-22T10:24:03.828Z,34.84
2018-08-22T10:25:13.671Z,34.91
2018-08-22T10:26:23.764Z,34.87
2018-08-22T10:27:33.944Z,34.81
2018-08-22T10:28:44.047Z,34.91
2018-08-22T10:29:54.143Z,34.9
2018-08-22T10:31:04.240Z,34.99
2018-08-22T10:32:14.337Z,34.94
2018-08-22T10:33:24.425Z,35.02
2018-08-22T10:34:34.312Z,34.99
2018-08-22T10:35:43.863Z,35.06
2018-08-22T10:36:53.961Z,35.09
2018-08-22T10:38:03.784Z,35.06
2018-08-22T10:39:13.848Z,35.09
2018-08-22T10:40:23.979Z,35.13
2018-08-22T10:41:33.824Z,35.2
2018-08-22T10:42:43.718Z,35.2
2018-08-22T10:43:53.816Z,35.16
2018-08-22T10:45:03.887Z,35.31
2018-08-22T10:46:13.727Z,35.26
2018-08-22T10:47:23.843Z,35.34
2018-08-22T10:48:33.672Z,35.34
2018-08-22T10:49:43.765Z,35.38
2018-08-22T10:50:53.914Z,35.34
2018-08-22T10:52:04.111Z,35.38
2018-08-22T10:53:13.965Z,35.39
2018-08-22T10:54:24.074Z,35.33
2018-08-22T10:55:34.170Z,35.47
2018-08-22T10:56:44.271Z,35.42
2018-08-22T10:57:54.371Z,35.43
2018-08-22T10:59:04.457Z,35.52
2018-08-22T11:00:14.540Z,35.55
2018-08-22T11:01:24.618Z,35.69
2018-08-22T11:02:34.715Z,35.8
2018-08-22T11:03:44.797Z,35.87
2018-08-22T11:04:54.357Z,35.94
2018-08-22T11:06:04.208Z,35.95
2018-08-22T11:07:14.296Z,35.99
2018-08-22T11:08:24.378Z,35.95
2018-08-22T11:09:34.200Z,35.96
2018-08-22T11:10:44.030Z,36.08
2018-08-22T11:11:54.137Z,36.09
2018-08-22T11:13:04.216Z,36.09
2018-08-22T11:14:14.325Z,36.21
2018-08-22T11:15:24.160Z,36.15
2018-08-22T11:16:34.262Z,36.24
2018-08-22T11:17:44.384Z,36.24
2018-08-22T11:18:53.948Z,36.24
2018-08-22T11:20:04.055Z,36.26
2018-08-22T11:21:13.954Z,36.3
2018-08-22T11:22:23.916Z,36.28
2018-08-22T11:23:34.153Z,36.36
2018-08-22T11:24:44.251Z,36.41
2018-08-22T11:25:54.361Z,36.43
2018-08-22T11:27:04.500Z,36.46
2018-08-22T11:28:14.605Z,36.53
2018-08-22T11:29:24.439Z,36.55
2018-08-22T11:30:34.000Z,36.61
2018-08-22T11:31:44.106Z,36.7
2018-08-22T11:32:54.254Z,36.77
2018-08-22T11:34:04.343Z,36.81
2018-08-22T11:35:14.432Z,36.86
2018-08-22T11:36:24.260Z,36.88
2018-08-22T11:37:34.102Z,36.9
2018-08-22T11:38:44.175Z,36.81
2018-08-22T11:39:54.029Z,36.78
2018-08-22T11:41:03.873Z,36.83
2018-08-22T11:42:13.976Z,36.86
2018-08-22T11:43:24.327Z,36.86
2018-08-22T11:44:34.167Z,36.77
2018-08-22T11:45:44.262Z,36.89
2018-08-22T11:46:54.675Z,36.89
2018-08-22T11:48:04.760Z,36.89
2018-08-22T11:49:14.844Z,36.9
2018-08-22T11:50:24.725Z,36.86
2018-08-22T11:51:34.831Z,36.86
2018-08-22T11:52:44.393Z,36.89
2018-08-22T11:53:54.488Z,36.86
2018-08-22T11:55:04.572Z,36.88
2018-08-22T11:56:14.643Z,36.93
2018-08-22T11:57:24.745Z,36.92
2018-08-22T11:58:34.820Z,36.86
2018-08-22T11:59:44.934Z,36.96
2018-08-22T12:00:55.041Z,36.96
2018-08-22T12:02:05.533Z,37.12
2018-08-22T12:03:15.641Z,37.11
2018-08-22T12:04:25.724Z,37.12
2018-08-22T12:05:35.796Z,37.15
2018-08-22T12:06:45.894Z,37.18
2018-08-22T12:07:55.989Z,37.12
2018-08-22T12:09:06.103Z,37.04
2018-08-22T12:10:15.926Z,37.14
2018-08-22T12:11:26.046Z,37.18
2018-08-22T12:12:35.855Z,37.12
2018-08-22T12:13:46.118Z,37.17
2018-08-22T12:14:56.219Z,37.15
2018-08-22T12:16:06.462Z,37.09
2018-08-22T12:17:16.857Z,37.18
2018-08-22T12:18:26.965Z,37.19
2018-08-22T12:19:37.091Z,37.18
2018-08-22T12:20:47.183Z,37.14
2018-08-22T12:21:57.295Z,37.14
2018-08-22T12:23:07.366Z,37.17
2018-08-22T12:24:17.956Z,37.11
2018-08-22T12:25:28.064Z,37.22
2018-08-22T12:26:38.167Z,37.11
2018-08-22T12:27:48.241Z,37.23
2018-08-22T12:28:58.443Z,37.19
2018-08-22T12:30:08.285Z,37.29
2018-08-22T12:31:18.655Z,37.41
2018-08-22T12:32:28.753Z,37.39
2018-08-22T12:33:38.834Z,37.39
2018-08-22T12:34:48.682Z,37.27
2018-08-22T12:35:58.795Z,37.3
2018-08-22T12:37:08.876Z,37.33
2018-08-22T12:38:18.698Z,37.39
2018-08-22T12:39:28.785Z,37.27
2018-08-22T12:40:38.891Z,37.24
2018-08-22T12:41:48.994Z,37.3
2018-08-22T12:42:59.092Z,37.36
2018-08-22T12:44:08.929Z,37.29
2018-08-22T12:45:18.776Z,37.24
2018-08-22T12:46:28.343Z,37.33
2018-08-22T12:47:38.424Z,37.39
2018-08-22T12:48:48.249Z,37.37
2018-08-22T12:49:58.330Z,37.39
2018-08-22T12:51:08.146Z,37.33
2018-08-22T12:52:17.967Z,37.42
2018-08-22T12:53:27.806Z,37.29
2018-08-22T12:54:37.892Z,37.37
2018-08-22T12:55:48.005Z,37.22
2018-08-22T12:56:58.090Z,37.29
2018-08-22T12:58:07.782Z,37.3
2018-08-22T12:59:17.882Z,37.29
2018-08-22T13:00:27.981Z,37.29
2018-08-22T13:01:37.817Z,37.29
2018-08-22T13:02:47.702Z,37.26
2018-08-22T13:03:57.793Z,37.37
2018-08-22T13:05:07.645Z,37.37
2018-08-22T13:06:17.756Z,37.33
2018-08-22T13:07:27.850Z,37.39
2018-08-22T13:08:37.967Z,37.34
2018-08-22T13:09:48.041Z,37.39
2018-08-22T13:10:58.184Z,37.39
2018-08-22T13:12:08.345Z,37.42
2018-08-22T13:13:18.435Z,37.46
2018-08-22T13:14:28.544Z,37.37
2018-08-22T13:15:38.665Z,37.42
2018-08-22T13:16:48.747Z,37.41
2018-08-22T13:17:58.386Z,37.37
2018-08-22T13:19:08.477Z,37.36
2018-08-22T13:20:18.323Z,37.34
2018-08-22T13:21:28.428Z,37.34
2018-08-22T13:22:38.544Z,37.37
2018-08-22T13:23:48.395Z,37.53
2018-08-22T13:24:58.497Z,37.49
2018-08-22T13:26:08.598Z,37.56
2018-08-22T13:27:18.711Z,37.48
2018-08-22T13:28:28.267Z,37.59
2018-08-22T13:29:38.364Z,37.59
2018-08-22T13:30:48.471Z,37.51
2018-08-22T13:31:58.358Z,37.53
2018-08-22T13:33:08.201Z,37.64
2018-08-22T13:34:18.016Z,37.59
2018-08-22T13:35:28.101Z,37.57
2018-08-22T13:36:37.945Z,37.61
2018-08-22T13:37:48.020Z,37.59
2018-08-22T13:38:58.247Z,37.59
2018-08-22T13:40:08.494Z,37.68
2018-08-22T13:41:18.502Z,37.57
2018-08-22T13:42:28.070Z,37.65
2018-08-22T13:43:38.176Z,37.56
2018-08-22T13:44:47.995Z,37.48
2018-08-22T13:45:57.846Z,37.59
2018-08-22T13:47:08.078Z,37.57
2018-08-22T13:48:18.191Z,37.62
2018-08-22T13:49:28.297Z,37.61
2018-08-22T13:50:38.181Z,37.64
2018-08-22T13:51:48.399Z,37.69
2018-08-22T13:52:58.482Z,37.69
2018-08-22T13:54:08.598Z,37.65
2018-08-22T13:55:18.446Z,37.65
2018-08-22T13:56:28.587Z,37.65
2018-08-22T13:57:38.814Z,37.64
2018-08-22T13:58:48.894Z,37.61
2018-08-22T13:59:58.987Z,37.61
2018-08-22T14:01:09.074Z,37.64
2018-08-22T14:02:18.925Z,37.61
2018-08-22T14:03:29.027Z,37.42
2018-08-22T14:04:39.233Z,37.48
2018-08-22T14:05:49.350Z,37.37
2018-08-22T14:06:59.465Z,37.39
2018-08-22T14:08:09.548Z,37.42
2018-08-22T14:09:19.394Z,37.51
2018-08-22T14:10:29.237Z,37.46
2018-08-22T14:11:38.813Z,37.48
2018-08-22T14:12:48.959Z,37.42
2018-08-22T14:13:59.059Z,37.42
2018-08-22T14:15:09.194Z,37.39
2018-08-22T14:16:19.284Z,37.37
2018-08-22T14:17:29.389Z,37.37
2018-08-22T14:18:39.238Z,37.37
2018-08-22T14:19:49.082Z,37.36
2018-08-22T14:20:59.175Z,37.37
2018-08-22T14:22:09.264Z,37.36
2018-08-22T14:23:19.343Z,37.34
2018-08-22T14:24:29.418Z,37.36
2018-08-22T14:25:39.503Z,37.36
2018-08-22T14:26:49.610Z,37.34
2018-08-22T14:27:59.690Z,37.36
2018-08-22T14:29:09.889Z,37.42
2018-08-22T14:30:20.037Z,37.37
2018-08-22T14:31:30.184Z,37.39
2018-08-22T14:32:40.366Z,37.39
2018-08-22T14:33:50.279Z,37.37
2018-08-22T14:35:00.497Z,37.29
2018-08-22T14:36:10.614Z,37.24
2018-08-22T14:37:20.455Z,37.3
2018-08-22T14:38:30.557Z,37.19
2018-08-22T14:39:40.389Z,37.17
2018-08-22T14:40:50.492Z,37.18
2018-08-22T14:42:00.567Z,37.09
2018-08-22T14:43:10.408Z,37.05
2018-08-22T14:44:20.496Z,37.07
2018-08-22T14:45:30.589Z,37.07
2018-08-22T14:46:40.811Z,37.14
2018-08-22T14:47:50.928Z,37.19
2018-08-22T14:49:01.012Z,37.08
2018-08-22T14:50:11.103Z,37.05
2018-08-22T14:51:21.196Z,36.99
2018-08-22T14:52:31.292Z,37.05
2018-08-22T14:53:41.636Z,36.95
2018-08-22T14:54:51.718Z,36.9
2018-08-22T14:56:02.056Z,36.96
2018-08-22T14:57:11.784Z,36.96
2018-08-22T14:58:21.953Z,36.95
2018-08-22T14:59:32.056Z,36.93
2018-08-22T15:00:41.921Z,36.97
2018-08-22T15:01:52.019Z,36.84
2018-08-22T15:03:03.572Z,36.88
2018-08-22T15:04:15.025Z,36.81
2018-08-22T15:05:25.122Z,36.83
2018-08-22T15:06:35.219Z,36.74
2018-08-22T15:07:45.057Z,36.65
2018-08-22T15:08:55.163Z,36.67
2018-08-22T15:10:04.996Z,36.67
2018-08-22T15:11:15.076Z,36.58
2018-08-22T15:12:24.923Z,36.53
2018-08-22T15:13:35.042Z,36.58
2018-08-22T15:14:45.152Z,36.51
2018-08-22T15:15:54.734Z,36.44
2018-08-22T15:17:04.830Z,36.49
2018-08-22T15:18:15.040Z,36.43
2018-08-22T15:19:25.563Z,36.46
2018-08-22T15:20:35.708Z,36.46
2018-08-22T15:21:46.007Z,36.4
2018-08-22T15:22:56.130Z,36.39
2018-08-22T15:24:06.229Z,36.37
2018-08-22T15:25:16.338Z,36.37
2018-08-22T15:26:25.902Z,36.33
2018-08-22T15:27:36.185Z,36.39
2018-08-22T15:28:46.261Z,36.36
2018-08-22T15:29:56.491Z,36.36
2018-08-22T15:31:06.990Z,36.39
2018-08-22T15:32:16.570Z,36.37
2018-08-22T15:33:26.672Z,36.33
2018-08-22T15:34:36.786Z,36.32
2018-08-22T15:35:46.607Z,36.26